Aviation Digital Data Service (ADDS)

Output produced by METARs form (0047 UTC 21 November 2017)
found at http://www.aviationweather.gov/adds/metars/
 
KJFK 202351Z 25019KT 10SM FEW250 07/M03 A3012 RMK AO2 SLP199 T00671028 10083 20067 51014
KJFK 202330Z 2100/2206 24014KT P6SM SCT250 
     FM210300 22011KT P6SM SCT250 
     FM211400 21016G23KT P6SM SCT250 
     FM220300 22012KT P6SM SCT040 SCT250
       
EGLL 210020Z AUTO 25013KT 9999 BKN010 OVC033 13/11 Q1013 TEMPO BKN008
TAF EGLL 202252Z 2100/2206 24010KT 9999 SCT006 BKN010 
     TEMPO 2100/2106 7000 -RA BKN006 
     PROB30 
     TEMPO 2100/2105 3000 -RADZ BKN004 
     BECMG 2106/2109 BKN020 
     BECMG 2118/2121 22016G26KT 
     TEMPO 2121/2203 8000 -RA BKN012
       
KBNA 202353Z 00000KT 10SM BKN250 09/M05 A3010 RMK AO2 SLP195 T00941050 10128 20089 56010
KBNA 202323Z 2100/2124 18005KT P6SM SCT250 
     FM211500 20009G16KT P6SM SCT250